createdAt,value
2017-12-29T00:00:40.902Z,10.90
2017-12-29T00:03:10.063Z,10.90
2017-12-29T00:08:08.802Z,10.90
2017-12-29T00:10:37.635Z,10.80
2017-12-29T00:13:07.168Z,10.80
2017-12-29T00:15:35.945Z,10.90
2017-12-29T00:18:04.888Z,10.90
2017-12-29T00:20:34.870Z,10.90
2017-12-29T00:23:03.687Z,10.90
2017-12-29T00:25:33.626Z,10.90
2017-12-29T00:28:02.800Z,10.90
2017-12-29T00:30:31.501Z,10.90
2017-12-29T00:33:00.685Z,10.90
2017-12-29T00:35:29.477Z,10.90
2017-12-29T00:37:58.162Z,11.00
2017-12-29T00:40:28.075Z,11.00
2017-12-29T00:42:57.584Z,11.00
2017-12-29T00:45:27.449Z,11.00
2017-12-29T00:50:26.610Z,10.80
2017-12-29T00:52:55.699Z,10.70
2017-12-29T00:55:24.386Z,10.80
2017-12-29T00:57:53.898Z,10.80
2017-12-29T01:00:22.838Z,10.90
2017-12-29T01:02:52.295Z,10.90
2017-12-29T01:05:21.892Z,10.80
2017-12-29T01:07:50.681Z,10.70
2017-12-29T01:10:19.373Z,10.80
2017-12-29T01:12:48.156Z,10.70
2017-12-29T01:15:16.951Z,10.60
2017-12-29T01:17:46.047Z,10.50
2017-12-29T01:20:15.551Z,10.50
2017-12-29T01:22:44.955Z,10.50
2017-12-29T01:25:13.635Z,10.40
2017-12-29T01:27:42.742Z,10.40
2017-12-29T01:30:12.748Z,10.50
2017-12-29T01:32:42.562Z,10.40
2017-12-29T01:35:11.349Z,10.40
2017-12-29T01:37:40.477Z,10.40
2017-12-29T01:40:09.244Z,10.40
2017-12-29T01:42:38.841Z,10.40
2017-12-29T01:45:07.940Z,10.30
2017-12-29T01:47:48.197Z,10.30
2017-12-29T01:50:18.034Z,10.40
2017-12-29T01:52:47.189Z,10.40
2017-12-29T01:55:16.813Z,10.40
2017-12-29T01:57:45.478Z,10.40
2017-12-29T02:00:15.009Z,10.40
2017-12-29T02:02:44.508Z,10.40
2017-12-29T02:05:13.498Z,10.40
2017-12-29T02:07:42.842Z,10.40
2017-12-29T02:10:13.235Z,10.40
2017-12-29T02:12:43.146Z,10.40
2017-12-29T02:15:13.322Z,10.40
2017-12-29T02:17:43.490Z,10.30
2017-12-29T02:20:12.180Z,10.30
2017-12-29T02:22:41.477Z,10.30
2017-12-29T02:25:10.370Z,10.30
2017-12-29T02:27:39.153Z,10.20
2017-12-29T02:30:10.311Z,10.10
2017-12-29T02:32:39.099Z,10.10
2017-12-29T02:35:08.799Z,10.10
2017-12-29T02:37:38.103Z,10.10
2017-12-29T02:40:06.787Z,10.10
2017-12-29T02:42:35.886Z,10.10
2017-12-29T02:45:05.362Z,10.20
2017-12-29T02:47:34.307Z,10.10
2017-12-29T02:50:03.576Z,10.10
2017-12-29T02:52:32.270Z,10.20
2017-12-29T02:55:02.461Z,10.20
2017-12-29T02:57:32.251Z,10.10
2017-12-29T03:00:01.965Z,10.10
2017-12-29T03:02:30.897Z,10.00
2017-12-29T03:05:01.223Z,10.00
2017-12-29T03:07:30.933Z,10.00
2017-12-29T03:10:00.540Z,10.00
2017-12-29T03:12:30.046Z,9.90
2017-12-29T03:14:59.551Z,10.00
2017-12-29T03:17:28.238Z,9.90
2017-12-29T03:19:57.193Z,10.00
2017-12-29T03:22:27.146Z,9.90
2017-12-29T03:24:56.794Z,9.90
2017-12-29T03:27:25.689Z,9.90
2017-12-29T03:29:55.460Z,9.90
2017-12-29T03:32:24.656Z,9.90
2017-12-29T03:34:53.592Z,9.80
2017-12-29T03:37:23.159Z,9.90
2017-12-29T03:39:51.840Z,9.90
2017-12-29T03:42:20.946Z,9.80
2017-12-29T03:44:50.341Z,9.90
2017-12-29T03:47:19.888Z,9.70
2017-12-29T03:49:49.554Z,9.80
2017-12-29T03:52:19.060Z,9.70
2017-12-29T03:54:48.466Z,9.80
2017-12-29T03:57:17.266Z,9.80
2017-12-29T03:59:46.453Z,9.80
2017-12-29T04:02:15.136Z,9.80
2017-12-29T04:04:44.942Z,9.70
2017-12-29T04:07:13.741Z,9.80
2017-12-29T04:09:42.634Z,9.70
2017-12-29T04:12:12.235Z,9.70
2017-12-29T04:14:40.970Z,9.70
2017-12-29T04:17:09.812Z,9.70
2017-12-29T04:19:38.605Z,9.70
2017-12-29T04:22:07.406Z,9.70
2017-12-29T04:24:36.288Z,9.70
2017-12-29T04:27:05.173Z,9.70
2017-12-29T04:29:35.505Z,9.70
2017-12-29T04:32:04.491Z,9.70
2017-12-29T04:34:33.314Z,9.80
2017-12-29T04:37:03.092Z,9.80
2017-12-29T04:39:32.478Z,9.80
2017-12-29T04:42:02.410Z,9.80
2017-12-29T04:44:31.302Z,9.80
2017-12-29T04:47:00.091Z,9.80
2017-12-29T04:49:28.774Z,9.80
2017-12-29T04:51:58.282Z,9.80
2017-12-29T04:54:27.083Z,9.90
2017-12-29T04:56:56.269Z,9.80
2017-12-29T04:59:25.466Z,9.90
2017-12-29T05:01:54.667Z,10.00
2017-12-29T05:04:24.071Z,10.00
2017-12-29T05:06:54.299Z,10.00
2017-12-29T05:09:24.209Z,10.00
2017-12-29T05:11:58.624Z,9.90
2017-12-29T05:14:27.312Z,9.90
2017-12-29T05:16:56.102Z,9.90
2017-12-29T05:19:24.892Z,9.90
2017-12-29T05:21:54.396Z,9.90
2017-12-29T05:24:24.669Z,9.90
2017-12-29T05:26:53.508Z,9.90
2017-12-29T05:29:22.246Z,9.90
2017-12-29T05:31:51.287Z,9.80
2017-12-29T05:34:19.978Z,9.80
2017-12-29T05:36:48.762Z,9.80
2017-12-29T05:39:17.657Z,9.70
2017-12-29T05:41:46.442Z,9.70
2017-12-29T05:44:15.949Z,9.70
2017-12-29T05:46:44.637Z,9.60
2017-12-29T05:49:13.260Z,9.70
2017-12-29T05:51:42.415Z,9.70
2017-12-29T05:54:11.204Z,9.60
2017-12-29T05:56:39.831Z,9.60
2017-12-29T05:59:08.473Z,9.60
2017-12-29T06:01:37.571Z,9.50
2017-12-29T06:04:07.074Z,9.50
2017-12-29T06:06:37.237Z,9.50
2017-12-29T06:09:05.922Z,9.50
2017-12-29T06:11:35.385Z,9.50
2017-12-29T06:14:04.245Z,9.60
2017-12-29T06:16:33.026Z,9.60
2017-12-29T06:19:02.574Z,9.70
2017-12-29T06:21:31.668Z,9.70
2017-12-29T06:24:00.477Z,9.70
2017-12-29T06:26:29.249Z,9.70
2017-12-29T06:28:58.545Z,9.70
2017-12-29T06:31:28.357Z,9.80
2017-12-29T06:33:57.973Z,9.70
2017-12-29T06:36:26.753Z,9.80
2017-12-29T06:38:56.257Z,9.80
2017-12-29T06:41:25.057Z,9.80
2017-12-29T06:43:53.938Z,9.90
2017-12-29T06:46:22.726Z,9.80
2017-12-29T06:48:51.516Z,9.90
2017-12-29T06:51:20.249Z,9.90
2017-12-29T06:56:19.728Z,10.00
2017-12-29T06:58:49.641Z,10.00
2017-12-29T07:01:19.149Z,10.10
2017-12-29T07:03:47.832Z,10.10
2017-12-29T07:06:17.135Z,10.10
2017-12-29T07:08:45.919Z,10.10
2017-12-29T07:11:14.707Z,10.10
2017-12-29T07:13:44.317Z,10.10
2017-12-29T07:18:43.634Z,10.20
2017-12-29T07:21:12.630Z,10.20
2017-12-29T07:26:11.741Z,10.30
2017-12-29T07:31:11.168Z,10.50
2017-12-29T07:33:40.208Z,10.50
2017-12-29T07:36:10.378Z,10.50
2017-12-29T07:41:10.003Z,10.50
2017-12-29T07:46:08.813Z,10.50
2017-12-29T07:48:38.177Z,10.40
2017-12-29T07:51:07.994Z,10.40
2017-12-29T07:53:37.631Z,10.40
2017-12-29T07:56:07.546Z,10.50
2017-12-29T07:58:37.466Z,10.60
2017-12-29T08:01:07.275Z,10.50
2017-12-29T08:03:36.374Z,10.50
2017-12-29T08:06:05.467Z,10.40
2017-12-29T08:08:34.570Z,10.50
2017-12-29T08:11:04.381Z,10.50
2017-12-29T08:13:33.078Z,10.40
2017-12-29T08:16:03.288Z,10.30
2017-12-29T08:18:33.299Z,10.20
2017-12-29T08:21:03.213Z,10.40
2017-12-29T08:23:33.132Z,10.50
2017-12-29T08:26:02.634Z,10.50
2017-12-29T08:28:32.148Z,10.50
2017-12-29T08:33:31.150Z,10.30
2017-12-29T08:35:59.885Z,10.40
2017-12-29T08:38:28.627Z,10.40
2017-12-29T08:40:57.416Z,10.30
2017-12-29T08:43:27.538Z,10.40
2017-12-29T08:48:27.201Z,10.40
2017-12-29T08:50:56.060Z,10.50
2017-12-29T08:53:25.968Z,10.50
2017-12-29T08:55:57.518Z,10.40
2017-12-29T08:58:26.725Z,10.40
2017-12-29T09:03:26.239Z,10.50
2017-12-29T09:05:54.924Z,10.50
2017-12-29T09:10:55.176Z,10.40
2017-12-29T09:13:24.611Z,10.50
2017-12-29T09:15:54.585Z,10.50
2017-12-29T09:18:23.680Z,10.60
2017-12-29T09:20:52.468Z,10.70
2017-12-29T09:23:21.974Z,10.80
2017-12-29T09:25:51.070Z,10.90
2017-12-29T09:28:21.190Z,10.90
2017-12-29T09:30:50.390Z,11.00
2017-12-29T09:33:20.716Z,11.00
2017-12-29T09:38:21.445Z,11.00
2017-12-29T09:40:51.429Z,11.00
2017-12-29T09:43:24.391Z,11.00
2017-12-29T09:45:53.259Z,11.00
2017-12-29T09:48:22.293Z,11.00
2017-12-29T09:53:21.116Z,10.90
2017-12-29T09:55:50.254Z,10.70
2017-12-29T09:58:20.175Z,10.80
2017-12-29T10:00:50.093Z,10.90
2017-12-29T10:03:19.717Z,11.00
2017-12-29T10:05:49.734Z,11.00
2017-12-29T10:08:20.103Z,11.10
2017-12-29T10:10:49.336Z,11.20
2017-12-29T10:13:18.840Z,11.30
2017-12-29T10:15:47.838Z,11.30
2017-12-29T10:18:17.034Z,11.30
2017-12-29T10:23:16.872Z,11.50
2017-12-29T10:38:17.528Z,11.90
2017-12-29T10:43:18.835Z,12.10
2017-12-29T10:45:48.043Z,12.30
2017-12-29T10:55:47.401Z,12.40
2017-12-29T10:58:16.605Z,12.30
2017-12-29T11:00:45.297Z,12.50
2017-12-29T11:03:15.710Z,12.60
2017-12-29T11:13:15.324Z,13.10
2017-12-29T11:18:14.584Z,13.20
2017-12-29T11:20:43.732Z,13.30
2017-12-29T11:25:42.805Z,13.60
2017-12-29T11:28:12.407Z,13.50
2017-12-29T11:30:43.545Z,13.70
2017-12-29T11:33:13.874Z,13.80
2017-12-29T11:38:13.138Z,13.70
2017-12-29T11:43:12.100Z,13.70
2017-12-29T11:48:10.902Z,13.60
2017-12-29T11:50:41.227Z,13.30
2017-12-29T11:58:10.768Z,13.40
2017-12-29T12:03:09.878Z,13.60
2017-12-29T12:08:09.400Z,13.50
2017-12-29T12:13:08.718Z,13.50
2017-12-29T12:23:07.868Z,13.60
2017-12-29T12:28:07.902Z,13.90
2017-12-29T12:30:36.995Z,13.90
2017-12-29T12:33:06.398Z,13.90
2017-12-29T12:35:36.317Z,14.00
2017-12-29T12:38:06.638Z,13.90
2017-12-29T12:40:36.756Z,13.90
2017-12-29T12:45:37.010Z,14.00
2017-12-29T12:48:05.685Z,14.00
2017-12-29T12:50:35.092Z,14.00
2017-12-29T13:05:34.581Z,14.40
2017-12-29T13:10:34.202Z,14.40
2017-12-29T13:15:33.528Z,14.60
2017-12-29T13:18:03.620Z,14.50
2017-12-29T13:25:32.624Z,14.80
2017-12-29T13:35:31.611Z,14.60
2017-12-29T13:40:30.485Z,14.60
2017-12-29T13:42:59.613Z,14.50
2017-12-29T13:47:59.242Z,14.80
2017-12-29T13:52:59.085Z,14.70
2017-12-29T13:57:58.492Z,14.80
2017-12-29T14:00:27.995Z,14.80
2017-12-29T14:02:57.192Z,14.80
2017-12-29T14:07:56.523Z,14.90
2017-12-29T14:10:25.708Z,14.70
2017-12-29T14:12:54.804Z,14.60
2017-12-29T14:15:24.414Z,14.80
2017-12-29T14:17:53.205Z,14.80
2017-12-29T14:20:22.399Z,14.80
2017-12-29T14:22:52.211Z,14.60
2017-12-29T14:25:21.719Z,14.70
2017-12-29T14:30:21.920Z,14.70
2017-12-29T14:32:51.154Z,14.60
2017-12-29T14:35:21.380Z,14.60
2017-12-29T14:37:50.418Z,14.60
2017-12-29T14:40:19.136Z,14.50
2017-12-29T14:42:48.664Z,14.50
2017-12-29T14:47:47.677Z,14.50
2017-12-29T14:50:17.285Z,14.50
2017-12-29T14:52:46.322Z,14.60
2017-12-29T14:57:45.191Z,14.50
2017-12-29T15:00:14.562Z,14.50
2017-12-29T15:02:44.165Z,14.50
2017-12-29T15:05:12.792Z,14.50
2017-12-29T15:07:42.181Z,14.60
2017-12-29T15:15:11.521Z,14.60
2017-12-29T15:17:41.024Z,14.60
2017-12-29T15:20:11.248Z,14.50
2017-12-29T15:22:41.472Z,14.50
2017-12-29T15:25:11.611Z,14.40
2017-12-29T15:27:41.606Z,14.50
2017-12-29T15:30:11.007Z,14.40
2017-12-29T15:32:40.718Z,14.50
2017-12-29T15:35:09.506Z,14.40
2017-12-29T15:37:38.601Z,14.40
2017-12-29T15:40:08.929Z,14.40
2017-12-29T15:42:38.538Z,14.30
2017-12-29T15:47:38.585Z,14.30
2017-12-29T15:52:38.910Z,14.30
2017-12-29T15:55:08.855Z,14.30
2017-12-29T15:57:38.847Z,14.30
2017-12-29T16:00:08.454Z,14.10
2017-12-29T16:05:07.258Z,14.00
2017-12-29T16:10:07.559Z,13.90
2017-12-29T16:20:08.431Z,13.70
2017-12-29T16:25:09.060Z,13.70
2017-12-29T16:30:09.082Z,13.70
2017-12-29T16:32:39.878Z,13.60
2017-12-29T16:40:10.880Z,13.50
2017-12-29T16:42:39.764Z,13.50
2017-12-29T16:45:09.074Z,13.50
2017-12-29T16:47:38.788Z,13.40
2017-12-29T16:55:08.958Z,13.30
2017-12-29T17:02:39.352Z,13.20
2017-12-29T17:07:39.869Z,13.30
2017-12-29T17:12:40.816Z,13.20
2017-12-29T17:15:10.925Z,13.00
2017-12-29T17:20:11.487Z,13.00
2017-12-29T17:27:42.235Z,13.10
2017-12-29T17:30:11.844Z,13.10
2017-12-29T17:35:12.689Z,13.10
2017-12-29T17:40:11.398Z,13.00
2017-12-29T17:42:40.968Z,13.10
2017-12-29T17:50:10.342Z,13.00
2017-12-29T17:52:40.366Z,13.00
2017-12-29T17:55:09.148Z,13.00
2017-12-29T18:10:12.033Z,13.00
2017-12-29T18:15:12.841Z,12.90
2017-12-29T18:17:43.471Z,12.80
2017-12-29T18:22:43.743Z,12.70
2017-12-29T18:27:45.814Z,12.70
2017-12-29T18:30:15.331Z,12.70
2017-12-29T18:32:45.473Z,12.60
2017-12-29T18:35:15.574Z,12.80
2017-12-29T18:37:45.649Z,12.70
2017-12-29T18:42:46.549Z,12.80
2017-12-29T18:47:48.732Z,12.80
2017-12-29T18:50:18.824Z,12.80
2017-12-29T18:55:18.883Z,12.80
2017-12-29T18:57:47.673Z,12.80
2017-12-29T19:15:20.352Z,12.80
2017-12-29T19:17:50.575Z,12.80
2017-12-29T19:20:20.189Z,12.70
2017-12-29T19:25:20.321Z,12.80
2017-12-29T19:27:50.646Z,12.70
2017-12-29T19:32:49.964Z,12.60
2017-12-29T19:50:20.088Z,12.60
2017-12-29T19:57:49.036Z,12.60
2017-12-29T20:00:18.866Z,12.60
2017-12-29T20:02:49.150Z,12.60
2017-12-29T20:05:19.065Z,12.60
2017-12-29T20:07:49.288Z,12.60
2017-12-29T20:10:18.791Z,12.50
2017-12-29T20:12:49.019Z,12.50
2017-12-29T20:17:49.558Z,12.40
2017-12-29T20:30:19.034Z,12.50
2017-12-29T20:32:48.758Z,12.50
2017-12-29T20:35:17.837Z,12.60
2017-12-29T20:37:47.546Z,12.60
2017-12-29T20:40:18.083Z,12.60
2017-12-29T20:42:47.365Z,12.50
2017-12-29T20:45:16.717Z,12.60
2017-12-29T20:47:46.387Z,12.60
2017-12-29T20:50:15.895Z,12.60
2017-12-29T20:52:44.993Z,12.70
2017-12-29T20:55:14.093Z,12.50
2017-12-29T20:57:42.873Z,12.50
2017-12-29T21:02:43.320Z,12.50
2017-12-29T21:05:12.823Z,12.40
2017-12-29T21:07:42.023Z,12.50
2017-12-29T21:10:12.104Z,12.40
2017-12-29T21:12:41.176Z,12.40
2017-12-29T21:15:10.742Z,12.40
2017-12-29T21:17:40.412Z,12.30
2017-12-29T21:22:40.486Z,12.30
2017-12-29T21:25:09.584Z,12.40
2017-12-29T21:27:39.311Z,12.30
2017-12-29T21:30:08.185Z,12.50
2017-12-29T21:32:37.292Z,12.40
2017-12-29T21:35:06.172Z,12.50
2017-12-29T21:37:36.816Z,12.50
2017-12-29T21:40:06.413Z,12.40
2017-12-29T21:42:36.338Z,12.40
2017-12-29T21:45:06.752Z,12.40
2017-12-29T21:47:35.960Z,12.50
2017-12-29T21:50:05.251Z,12.40
2017-12-29T21:52:36.292Z,12.50
2017-12-29T21:55:05.602Z,12.40
2017-12-29T21:57:35.155Z,12.40
2017-12-29T22:00:05.640Z,12.40
2017-12-29T22:02:35.447Z,12.40
2017-12-29T22:05:04.235Z,12.50
2017-12-29T22:07:33.737Z,12.50
2017-12-29T22:10:02.593Z,12.50
2017-12-29T22:12:32.134Z,12.40
2017-12-29T22:15:01.441Z,12.40
2017-12-29T22:17:31.555Z,12.30
2017-12-29T22:20:01.640Z,12.30
2017-12-29T22:22:31.665Z,12.30
2017-12-29T22:25:00.769Z,12.20
2017-12-29T22:27:30.656Z,12.20
2017-12-29T22:30:00.314Z,12.20
2017-12-29T22:32:30.227Z,12.10
2017-12-29T22:34:59.018Z,12.10
2017-12-29T22:37:28.351Z,12.20
2017-12-29T22:39:58.237Z,12.20
2017-12-29T22:42:27.879Z,12.10
2017-12-29T22:44:57.341Z,12.10
2017-12-29T22:47:26.240Z,12.00
2017-12-29T22:49:55.764Z,11.90
2017-12-29T22:52:25.449Z,12.00
2017-12-29T22:54:55.265Z,11.90
2017-12-29T22:57:24.873Z,12.00
2017-12-29T22:59:54.724Z,12.00
2017-12-29T23:02:24.403Z,11.90
2017-12-29T23:04:53.901Z,12.00
2017-12-29T23:07:23.502Z,12.00
2017-12-29T23:09:53.622Z,12.00
2017-12-29T23:12:23.242Z,12.00
2017-12-29T23:14:52.945Z,12.10
2017-12-29T23:17:21.834Z,12.10
2017-12-29T23:19:51.437Z,12.00
2017-12-29T23:22:20.487Z,12.00
2017-12-29T23:24:49.423Z,12.00
2017-12-29T23:27:19.442Z,12.00
2017-12-29T23:29:49.155Z,12.00
2017-12-29T23:32:18.452Z,11.90
2017-12-29T23:34:47.547Z,11.90
2017-12-29T23:37:17.155Z,11.80
2017-12-29T23:39:47.198Z,11.90
2017-12-29T23:42:16.487Z,11.80
2017-12-29T23:44:46.184Z,11.80
2017-12-29T23:47:15.282Z,11.80
2017-12-29T23:49:45.003Z,11.80
2017-12-29T23:52:13.676Z,11.90
2017-12-29T23:54:43.292Z,11.90
2017-12-29T23:57:12.388Z,11.90
2017-12-29T23:59:41.376Z,11.90
